logo

United by the hobby
of model aircraft flying

Promoting safe
radio model flying

Sharing the experience
of RC flying

Dedicated to the sport of model aviation

Meeting
Venue

Third Monday Each Month
Crown Point Civic Center
101 S East Street
Crown Point, IN 46307

Read More

email:
[javascript protected email address]

View our events calendar

2019

Weather Conditions

Elev 730 ft    41.19°N  87.16°W

50.0 °F
210°
15 m/h
Wind Variable Wind from SSW

Current Conditions

Pressure 29.57 in
Visibility 10 miles
Clouds Clear
Dew Point 39.0 °F
Humidity 65 %
Rainfall 0.08 in
 
METAR KVPZ 220856Z AUTO 21013G25KT 10SM CLR 10/04 A2957 RMK AO2 SLP014 T01000039 58013

Forecast

INFORMATION PROVIDED BY THE INDIANA STATE FORECAST - NATIONAL WEATHER SERVICE
Sunrise & Sunset
October 22, 2019
4:3 AM

5:59 PM
High 60 | Low 44°F
October 23, 2019
4:3 AM

5:59 PM
High | Low °F
 

our gallery

View All